Time;durP1;ratioP1;P1;durP2;ratioP2;P2;SDS_P1;SDS_P2;PMS_P1;PMS_P2;Temp;Humidity;BMP_temperature;BMP_pressure;BME280_temperature;BME280_humidity;BME280_pressure;Samples;Min_cycle;Max_cycle;Signal;HPM_P1;HPM_P2
2021/12/31 00:05:46;;;;;;;17.20;9.40;;;;;;;7.83;96.33;98405.17;419297;1317;110652;-41
2021/12/31 00:15:53;;;;;;;8.90;5.70;;;;;;;7.87;96.46;98423.80;419050;1316;108892;-40
2021/12/31 00:26:00;;;;;;;7.40;5.40;;;;;;;7.91;96.42;98422.91;419247;1317;95356;-40
2021/12/31 00:36:07;;;;;;;8.10;6.20;;;;;;;7.95;96.43;98423.46;419302;1317;109070;-41
2021/12/31 00:46:14;;;;;;;9.40;8.00;;;;;;;7.99;96.59;98427.91;419204;1316;96528;-44
2021/12/31 00:56:22;;;;;;;8.30;6.60;;;;;;;8.06;96.61;98434.92;420342;1313;110046;-40
2021/12/31 01:06:30;;;;;;;11.70;9.70;;;;;;;8.08;96.49;98446.86;420231;1312;108969;-40
2021/12/31 01:16:40;;;;;;;9.80;7.70;;;;;;;8.08;96.61;98448.02;420123;1314;95660;-40
2021/12/31 01:26:48;;;;;;;7.20;6.20;;;;;;;8.11;96.54;98463.70;420028;1312;108847;-41
2021/12/31 01:36:55;;;;;;;8.80;6.60;;;;;;;8.08;96.52;98468.16;420125;1312;96196;-43
2021/12/31 01:47:05;;;;;;;7.20;5.60;;;;;;;8.11;96.65;98456.83;420545;1313;109768;-41
2021/12/31 01:57:13;;;;;;;7.20;4.80;;;;;;;8.18;96.74;98461.69;420209;1312;108382;-41
2021/12/31 02:07:20;;;;;;;6.30;4.80;;;;;;;8.22;96.80;98454.14;420343;1313;96109;-41
2021/12/31 02:17:27;;;;;;;11.70;6.30;;;;;;;8.26;96.97;98456.45;420296;1313;108507;-41
2021/12/31 02:27:36;;;;;;;9.90;5.80;;;;;;;8.32;97.30;98463.47;420130;1314;96694;-43
2021/12/31 02:37:44;;;;;;;10.20;6.70;;;;;;;8.41;97.22;98472.59;420174;1313;109629;-42
2021/12/31 02:47:51;;;;;;;9.80;6.80;;;;;;;8.44;97.40;98477.41;419656;1313;109085;-41
2021/12/31 02:57:59;;;;;;;12.40;8.60;;;;;;;8.47;97.28;98483.65;420076;1314;96244;-41
2021/12/31 03:08:10;;;;;;;13.80;9.90;;;;;;;8.46;97.23;98485.41;420400;1313;108862;-43
2021/12/31 03:28:26;;;;;;;12.10;9.90;;;;;;;8.51;97.34;98498.58;419803;1314;110002;-40
2021/12/31 03:38:33;;;;;;;14.40;11.00;;;;;;;8.52;97.44;98491.73;420209;1312;108906;-40
2021/12/31 03:48:40;;;;;;;15.20;10.70;;;;;;;8.56;97.38;98492.01;420296;1312;96630;-41
2021/12/31 03:58:48;;;;;;;21.30;12.80;;;;;;;8.56;97.51;98481.02;420304;1313;109046;-42
2021/12/31 04:08:55;;;;;;;17.70;10.60;;;;;;;8.55;97.37;98483.59;419834;1314;96217;-41
2021/12/31 04:19:03;;;;;;;15.60;10.30;;;;;;;8.56;97.45;98478.88;420228;1312;111328;-40
2021/12/31 04:29:09;;;;;;;13.00;9.50;;;;;;;8.61;97.44;98475.65;420343;1313;108512;-41
2021/12/31 04:39:15;;;;;;;13.40;10.10;;;;;;;8.61;97.54;98480.60;420237;1313;95629;-40
2021/12/31 04:59:29;;;;;;;13.50;10.20;;;;;;;8.74;97.83;98485.74;420359;1314;96694;-40
2021/12/31 05:09:36;;;;;;;10.90;6.80;;;;;;;8.80;97.74;98485.77;420227;1312;110610;-40
2021/12/31 05:19:44;;;;;;;13.20;6.70;;;;;;;8.83;97.79;98489.23;420084;1312;108731;-41
2021/12/31 05:29:51;;;;;;;8.00;5.60;;;;;;;8.87;97.81;98491.03;420402;1313;96006;-41
2021/12/31 05:39:59;;;;;;;4.70;4.10;;;;;;;8.90;97.93;98484.71;420110;1312;109267;-41
2021/12/31 05:50:05;;;;;;;6.30;5.40;;;;;;;8.90;97.94;98493.67;420121;1312;95915;-41
2021/12/31 06:00:13;;;;;;;2.30;2.00;;;;;;;8.94;97.94;98495.05;420137;1312;110015;-40
2021/12/31 06:10:21;;;;;;;3.70;3.40;;;;;;;8.97;98.00;98501.52;420322;1312;107111;-39
2021/12/31 06:30:36;;;;;;;2.20;2.10;;;;;;;9.03;98.01;98518.11;420430;1313;108937;-40
2021/12/31 06:40:43;;;;;;;5.20;3.00;;;;;;;9.03;98.20;98514.41;416437;1312;5547558;-40
2021/12/31 06:50:50;;;;;;;4.40;3.70;;;;;;;9.07;98.12;98512.70;420082;1312;109994;-40
2021/12/31 07:00:57;;;;;;;7.30;5.40;;;;;;;9.08;98.10;98519.29;420347;1312;108844;-41
2021/12/31 07:11:05;;;;;;;3.80;3.50;;;;;;;9.13;98.19;98529.93;420178;1312;96601;-42
2021/12/31 07:21:13;;;;;;;12.70;8.20;;;;;;;9.19;98.23;98536.72;420207;1312;108838;-39
2021/12/31 07:31:20;;;;;;;15.50;10.10;;;;;;;9.25;98.17;98563.61;420291;1312;98105;-40
2021/12/31 07:41:26;;;;;;;8.90;7.50;;;;;;;9.29;98.39;98565.34;420187;1313;111130;-41
2021/12/31 07:51:34;;;;;;;10.50;8.00;;;;;;;9.36;98.49;98564.30;420152;1312;108903;-40
2021/12/31 08:01:41;;;;;;;10.10;8.10;;;;;;;9.42;98.61;98567.10;419978;1313;97116;-40
2021/12/31 08:11:48;;;;;;;6.90;5.90;;;;;;;9.47;98.84;98564.86;419188;1313;108938;-41
2021/12/31 08:21:56;;;;;;;11.50;7.20;;;;;;;9.54;98.78;98573.17;420303;1312;97968;-39
2021/12/31 08:32:03;;;;;;;7.40;6.50;;;;;;;9.66;99.05;98582.37;420521;1313;111273;-40
2021/12/31 08:42:11;;;;;;;8.50;6.90;;;;;;;9.74;99.14;98595.80;420221;1312;108852;-39
2021/12/31 09:02:24;;;;;;;12.30;7.50;;;;;;;9.74;98.90;98599.58;420375;1312;109081;-41
2021/12/31 09:12:30;;;;;;;11.00;8.10;;;;;;;9.73;98.65;98601.84;420240;1312;97967;-41
2021/12/31 09:22:37;;;;;;;39.50;21.60;;;;;;;9.74;98.72;98597.47;420220;1313;111146;-39
2021/12/31 09:32:44;;;;;;;18.50;11.90;;;;;;;9.73;98.71;98597.81;420314;1312;108884;-41
2021/12/31 09:53:01;;;;;;;15.80;11.20;;;;;;;9.95;98.89;98599.21;420155;1312;108873;-40
2021/12/31 10:03:17;;;;;;;15.40;10.10;;;;;;;10.22;98.92;98595.26;421264;1313;98091;-40
2021/12/31 10:13:25;;;;;;;12.20;5.90;;;;;;;10.41;98.77;98583.08;420259;1310;111057;-40
2021/12/31 10:23:37;;;;;;;10.20;7.60;;;;;;;10.39;98.59;98579.52;421173;1311;109462;-40
2021/12/31 10:33:44;;;;;;;9.10;6.90;;;;;;;10.41;98.45;98576.40;421139;1311;100292;-41
2021/12/31 10:43:55;;;;;;;9.20;5.80;;;;;;;10.49;98.39;98574.20;421178;1311;107708;-40
2021/12/31 10:54:16;;;;;;;9.00;5.80;;;;;;;10.57;98.10;98568.67;421156;1310;97973;-40
2021/12/31 11:04:26;;;;;;;8.00;5.20;;;;;;;10.67;97.87;98563.09;421430;1312;111809;-40
2021/12/31 11:14:37;;;;;;;9.10;5.30;;;;;;;10.66;97.79;98559.73;421139;1310;108827;-42
2021/12/31 11:24:44;;;;;;;10.70;6.70;;;;;;;10.71;97.64;98554.81;420720;1312;97996;-42
2021/12/31 11:35:22;;;;;;;10.80;8.10;;;;;;;10.68;97.50;98547.62;420306;1312;108919;-41
2021/12/31 11:45:30;;;;;;;15.70;11.70;;;;;;;10.62;97.39;98538.89;420413;1312;98035;-42
2021/12/31 12:05:46;;;;;;;8.70;6.40;;;;;;;10.58;96.85;98522.32;420153;1312;108354;-40
2021/12/31 12:15:53;;;;;;;16.50;11.70;;;;;;;10.69;96.89;98506.18;420241;1312;97971;-41
2021/12/31 12:26:02;;;;;;;9.00;7.00;;;;;;;10.75;96.55;98499.15;420228;1310;108892;-40
2021/12/31 12:36:10;;;;;;;6.70;4.90;;;;;;;10.69;96.27;98483.11;421350;1311;97548;-41
2021/12/31 12:46:19;;;;;;;7.80;5.00;;;;;;;10.71;96.23;98483.73;421353;1312;111280;-39
2021/12/31 12:56:27;;;;;;;8.20;4.10;;;;;;;10.74;96.14;98481.63;421903;1310;108955;-42
2021/12/31 13:16:49;;;;;;;9.20;6.30;;;;;;;10.71;95.45;98487.27;421849;1309;108315;-40
2021/12/31 13:27:03;;;;;;;7.60;5.50;;;;;;;10.69;95.32;98486.24;421872;1309;97958;-41
2021/12/31 13:37:23;;;;;;;12.50;7.40;;;;;;;10.70;95.28;98490.70;421593;1309;111293;-42
2021/12/31 13:47:31;;;;;;;10.70;6.70;;;;;;;10.72;95.00;98489.61;421862;1310;108842;-41
2021/12/31 13:57:38;;;;;;;12.90;7.80;;;;;;;10.65;94.91;98484.83;421257;1312;98595;-40
2021/12/31 14:08:18;;;;;;;17.90;10.30;;;;;;;10.57;94.82;98473.96;420923;1313;108996;-41
2021/12/31 14:18:26;;;;;;;9.50;6.00;;;;;;;10.51;94.76;98476.12;421871;1309;97913;-43
2021/12/31 14:28:46;;;;;;;20.10;11.70;;;;;;;10.41;94.71;98491.46;422067;1309;110429;-39
2021/12/31 14:38:54;;;;;;;23.70;16.00;;;;;;;10.23;94.46;98489.95;417556;1309;5842798;-41
2021/12/31 14:49:01;;;;;;;30.80;17.60;;;;;;;10.08;94.40;98496.67;420978;1312;97995;-40
2021/12/31 15:09:18;;;;;;;34.40;17.30;;;;;;;9.83;94.41;98481.98;421876;1310;97664;-41
2021/12/31 15:19:25;;;;;;;29.70;16.90;;;;;;;9.78;94.63;98475.77;421815;1309;111160;-41
2021/12/31 15:29:33;;;;;;;29.90;16.60;;;;;;;9.73;94.55;98461.89;421029;1312;108880;-41
2021/12/31 15:39:40;;;;;;;28.40;16.00;;;;;;;9.71;94.49;98460.45;421225;1312;97974;-42
2021/12/31 15:49:47;;;;;;;31.30;19.30;;;;;;;9.70;94.52;98462.02;421810;1310;109338;-40
2021/12/31 15:59:55;;;;;;;27.10;14.80;;;;;;;9.70;94.49;98452.14;421809;1309;97937;-40
2021/12/31 16:10:02;;;;;;;24.20;15.10;;;;;;;9.71;94.46;98445.48;421917;1309;111184;-40
2021/12/31 16:20:11;;;;;;;28.40;14.70;;;;;;;9.71;94.24;98453.88;421733;1312;109831;-40
2021/12/31 16:30:20;;;;;;;;;;;;;;;9.74;94.38;98451.46;421222;1313;96650;-41
2021/12/31 16:40:27;;;;;;;21.00;13.30;;;;;;;9.77;94.28;98444.87;421204;1312;108415;-39
2021/12/31 16:50:35;;;;;;;18.40;13.80;;;;;;;9.74;94.33;98439.85;421256;1315;97948;-42
2021/12/31 17:00:41;;;;;;;19.30;12.10;;;;;;;9.73;94.14;98433.41;420962;1312;110953;-42
2021/12/31 17:10:49;;;;;;;23.30;14.80;;;;;;;9.73;93.99;98428.58;421084;1312;108849;-41
2021/12/31 17:20:56;;;;;;;21.50;13.10;;;;;;;9.78;93.90;98427.68;421240;1315;98113;-41
2021/12/31 17:31:03;;;;;;;29.30;16.60;;;;;;;9.82;93.69;98426.59;420322;1313;108486;-41
2021/12/31 17:41:10;;;;;;;33.40;17.60;;;;;;;9.80;93.83;98417.48;421269;1312;96691;-40
2021/12/31 17:51:18;;;;;;;28.00;15.10;;;;;;;9.74;93.51;98409.36;421389;1312;111177;-40
2021/12/31 18:01:25;;;;;;;47.00;23.40;;;;;;;9.73;93.34;98394.14;421151;1312;107753;-40
2021/12/31 18:11:32;;;;;;;35.70;17.00;;;;;;;9.72;93.38;98387.36;421171;1315;97977;-40
2021/12/31 18:21:37;;;;;;;44.20;20.90;;;;;;;9.70;93.23;98380.61;420467;1315;108901;-39
2021/12/31 18:31:45;;;;;;;44.60;22.80;;;;;;;9.67;93.42;98389.80;421812;1309;97971;-40
2021/12/31 18:41:52;;;;;;;28.10;13.70;;;;;;;9.67;93.17;98401.41;422020;1315;111372;-40
2021/12/31 18:51:59;;;;;;;23.60;12.80;;;;;;;9.72;93.04;98392.89;421840;1316;108784;-40
2021/12/31 19:02:07;;;;;;;43.90;17.00;;;;;;;9.78;92.93;98388.33;422022;1316;97945;-42
2021/12/31 19:12:15;;;;;;;24.10;12.50;;;;;;;9.79;92.89;98396.13;422157;1310;108955;-40
2021/12/31 19:22:29;;;;;;;24.20;11.50;;;;;;;9.75;92.71;98389.59;422088;1309;96745;-40
2021/12/31 19:32:36;;;;;;;28.30;13.60;;;;;;;9.74;92.30;98378.89;421945;1316;111102;-41
2021/12/31 19:42:43;;;;;;;33.00;16.00;;;;;;;9.78;92.11;98374.77;421989;1310;108833;-41
2021/12/31 19:52:51;;;;;;;28.30;14.90;;;;;;;9.84;91.94;98375.73;421329;1315;97976;-40
2021/12/31 20:02:57;;;;;;;33.80;15.00;;;;;;;9.82;91.93;98383.31;420883;1315;108388;-40
2021/12/31 20:23:12;;;;;;;24.00;13.00;;;;;;;9.75;91.52;98394.14;421761;1315;111418;-39
2021/12/31 20:33:19;;;;;;;18.20;10.10;;;;;;;9.73;91.19;98386.75;421486;1314;109278;-40
2021/12/31 20:43:27;;;;;;;17.80;9.40;;;;;;;9.73;91.33;98383.00;421624;1315;97934;-42
2021/12/31 20:53:35;;;;;;;26.70;12.90;;;;;;;9.70;91.17;98375.65;421279;1316;109007;-40
2021/12/31 21:03:42;;;;;;;28.30;15.20;;;;;;;9.66;91.24;98388.25;421305;1316;98053;-40
2021/12/31 21:13:49;;;;;;;20.90;12.20;;;;;;;9.66;90.96;98395.61;421318;1309;112001;-41
2021/12/31 21:23:56;;;;;;;15.30;8.20;;;;;;;9.58;90.86;98396.86;421019;1310;108747;-41
2021/12/31 21:34:04;;;;;;;17.70;8.70;;;;;;;9.43;91.00;98403.83;420388;1312;98028;-40
2021/12/31 21:44:11;;;;;;;21.60;13.30;;;;;;;9.34;91.24;98401.92;420382;1312;108862;-42
2021/12/31 21:54:18;;;;;;;18.10;11.10;;;;;;;9.24;91.43;98396.30;420392;1312;97590;-39
2021/12/31 22:04:26;;;;;;;17.40;11.80;;;;;;;9.17;91.71;98397.54;420471;1311;111188;-41
2021/12/31 22:14:34;;;;;;;26.70;18.20;;;;;;;9.13;91.94;98400.35;420317;1312;107686;-40
2021/12/31 22:34:51;;;;;;;16.40;9.20;;;;;;;9.08;92.41;98394.20;416446;1313;5639595;-41
2021/12/31 22:44:59;;;;;;;16.60;11.40;;;;;;;9.08;92.42;98401.75;420387;1310;97969;-40
2021/12/31 22:55:05;;;;;;;18.10;13.10;;;;;;;9.07;92.65;98409.33;420302;1312;111300;-43
2021/12/31 23:05:10;;;;;;;31.20;23.10;;;;;;;9.05;92.77;98413.12;420530;1312;108844;-41
2021/12/31 23:15:18;;;;;;;14.20;8.40;;;;;;;9.03;92.96;98410.02;420273;1312;98009;-41
2021/12/31 23:25:26;;;;;;;12.50;8.80;;;;;;;9.03;93.34;98410.27;421004;1310;109058;-40
2021/12/31 23:35:33;;;;;;;19.90;12.70;;;;;;;9.06;93.55;98414.89;421349;1310;97563;-41
2021/12/31 23:45:40;;;;;;;80.20;62.80;;;;;;;9.10;93.95;98410.36;421306;1309;109635;-40
2021/12/31 23:55:48;;;;;;;11.40;7.00;;;;;;;9.13;93.97;98410.58;421740;1309;108893;-40
